PDT,Max TemperatureF,Mean TemperatureF,Min TemperatureF,Max Dew PointF,MeanDew PointF,Min DewpointF,Max Humidity, Mean Humidity, Min Humidity, Max Sea Level PressureIn, Mean Sea Level PressureIn, Min Sea Level PressureIn, Max VisibilityMiles, Mean VisibilityMiles, Min VisibilityMiles, Max Wind SpeedMPH, Mean Wind SpeedMPH, Max Gust SpeedMPH,PrecipitationIn, CloudCover, Events, WindDirDegrees
2013-6-1,53,46,39,33,29,22,70,54,36,30.19,30.04,29.87,10,10,10,7,4,,0.00,3,Rain,151
2013-6-2,51,44,37,40,36,27,100,84,51,29.98,29.87,29.74,10,8,0,8,4,,0.07,6,Fog-Rain,266
2013-6-3,51,44,37,41,38,37,100,90,61,30.14,29.97,29.81,10,6,0,10,5,22,0.11,8,Fog-Rain,335
2013-6-4,57,47,37,40,37,31,100,76,40,30.23,30.09,29.96,10,10,10,9,4,,0.00,5,,121
2013-6-5,64,56,48,40,36,31,61,49,34,30.00,29.94,29.90,10,10,10,8,5,,0.00,1,,200
2013-6-6,69,60,54,45,42,38,69,53,40,29.93,29.88,29.83,10,10,10,7,4,,0.00,2,,238
2013-6-7,63,57,48,45,41,33,64,58,46,29.82,29.79,29.73,10,10,10,13,7,29,0.00,3,,255
2013-6-8,63,52,42,35,32,30,63,49,32,29.90,29.87,29.80,10,10,10,9,6,,0.00,0,,232
2013-6-9,57,52,46,38,32,23,61,49,36,29.84,29.78,29.76,10,10,10,12,8,22,0.00,1,,244
2013-6-10,64,54,45,35,29,23,52,39,24,29.76,29.71,29.65,10,10,10,8,5,,0.00,0,,257
2013-6-11,61,51,41,40,34,28,71,53,39,29.89,29.74,29.65,10,10,10,8,5,,0.00,1,,300
2013-6-12,55,45,37,39,35,29,83,69,56,30.09,29.93,29.86,10,10,10,6,3,,0.00,7,Rain,299
2013-6-13,52,44,37,36,33,30,86,72,50,30.07,29.93,29.87,10,10,8,8,4,,0.02,3,Rain,315
2013-6-14,45,39,34,38,35,31,97,85,65,30.17,30.06,29.91,10,10,10,8,5,18,0.03,6,Rain,261
2013-6-15,63,52,41,35,31,27,70,48,29,30.01,29.94,29.89,10,10,10,7,4,,0.00,0,,256
2013-6-16,72,60,50,36,32,29,48,37,22,29.94,29.91,29.88,10,10,10,8,3,,0.00,1,,123
2013-6-17,71,62,55,46,40,32,56,45,36,29.86,29.82,29.72,10,10,10,9,5,16,0.00,1,,131
2013-6-18,64,54,44,49,46,40,100,82,51,29.97,29.79,29.65,10,7,0,12,5,18,0.00,4,Fog,327
2013-6-19,44,40,37,45,40,37,100,100,93,29.86,29.78,29.59,5,1,0,12,5,23,0.99,8,Fog-Rain,335
2013-6-20,37,35,33,37,34,33,100,100,93,30.08,29.93,29.66,10,2,0,14,7,26,0.61,8,Fog-Rain-Snow,221
2013-6-21,48,40,34,43,38,34,100,95,80,30.15,30.07,29.96,10,5,0,8,3,,0.09,7,Fog-Rain,299
2013-6-22,53,44,37,41,39,37,100,87,68,30.13,30.01,29.87,10,10,10,7,4,,0.01,6,,320
2013-6-23,60,51,43,42,39,35,86,65,42,29.85,29.71,29.57,10,10,10,6,3,,0.00,3,Rain,163
2013-6-24,52,48,44,49,46,37,100,96,59,29.82,29.71,29.49,10,5,0,9,4,16,0.66,8,Fog-Rain,196
2013-6-25,55,46,39,46,44,39,100,94,72,30.00,29.86,29.64,10,7,0,9,4,21,0.33,8,Fog-Rain,226
2013-6-26,57,49,43,46,44,41,100,90,64,30.15,30.02,29.81,10,7,0,10,5,,0.00,8,Fog-Rain,210
2013-6-27,69,57,46,53,47,43,96,74,45,30.30,30.12,30.04,10,10,10,8,4,,0.00,2,,219
2013-6-28,77,66,55,52,48,41,77,55,29,30.16,30.10,30.02,10,10,10,6,3,,0.00,2,,279
2013-6-29,78,64,53,57,51,47,97,62,50,30.37,30.00,29.91,10,9,2,13,6,28,0.06,2,Rain,102
2013-6-30,78,70,61,55,50,39,70,54,27,30.30,29.99,29.91,10,10,10,8,3,,0.00,2,,157